sensor_id;sensor_type;location;lat;lon;timestamp;pressure;altitude;pressure_sealevel;temperature;humidity
64095;BME280;50353;51.420;5.682;2023-06-14T00:00:30;101081.34;;;20.74;45.54
64095;BME280;50353;51.420;5.682;2023-06-14T00:02:56;101093.03;;;20.55;46.36
64095;BME280;50353;51.420;5.682;2023-06-14T00:05:22;101099.53;;;20.52;46.54
64095;BME280;50353;51.420;5.682;2023-06-14T00:07:48;101103.28;;;20.41;47.11
64095;BME280;50353;51.420;5.682;2023-06-14T00:10:14;101095.88;;;20.53;46.23
64095;BME280;50353;51.420;5.682;2023-06-14T00:12:40;101107.78;;;20.41;45.72
64095;BME280;50353;51.420;5.682;2023-06-14T00:15:06;101099.28;;;20.27;46.53
64095;BME280;50353;51.420;5.682;2023-06-14T00:17:32;101104.50;;;20.29;46.78
64095;BME280;50353;51.420;5.682;2023-06-14T00:19:58;101099.84;;;20.21;47.04
64095;BME280;50353;51.420;5.682;2023-06-14T00:22:24;101111.22;;;20.15;47.43
64095;BME280;50353;51.420;5.682;2023-06-14T00:24:51;101111.78;;;20.09;47.98
64095;BME280;50353;51.420;5.682;2023-06-14T00:27:16;101103.16;;;20.15;46.81
64095;BME280;50353;51.420;5.682;2023-06-14T00:29:41;101106.47;;;20.27;47.32
64095;BME280;50353;51.420;5.682;2023-06-14T00:32:07;101108.66;;;20.14;47.62
64095;BME280;50353;51.420;5.682;2023-06-14T00:34:32;101105.25;;;19.84;48.55
64095;BME280;50353;51.420;5.682;2023-06-14T00:36:58;101108.69;;;20.04;47.52
64095;BME280;50353;51.420;5.682;2023-06-14T00:39:23;101107.59;;;19.97;47.49
64095;BME280;50353;51.420;5.682;2023-06-14T00:41:49;101114.19;;;19.65;48.85
64095;BME280;50353;51.420;5.682;2023-06-14T00:44:16;101109.84;;;20.01;47.62
64095;BME280;50353;51.420;5.682;2023-06-14T00:46:42;101117.78;;;19.93;47.32
64095;BME280;50353;51.420;5.682;2023-06-14T00:49:08;101110.59;;;19.74;47.28
64095;BME280;50353;51.420;5.682;2023-06-14T00:51:33;101110.75;;;20.20;45.99
64095;BME280;50353;51.420;5.682;2023-06-14T00:53:59;101109.19;;;19.89;46.98
64095;BME280;50353;51.420;5.682;2023-06-14T00:56:24;101110.66;;;19.54;49.08
64095;BME280;50353;51.420;5.682;2023-06-14T00:58:50;101107.81;;;19.66;48.37
64095;BME280;50353;51.420;5.682;2023-06-14T01:01:16;101114.31;;;19.83;47.63
64095;BME280;50353;51.420;5.682;2023-06-14T01:03:41;101110.84;;;19.43;48.75
64095;BME280;50353;51.420;5.682;2023-06-14T01:06:29;101113.16;;;19.66;47.56
64095;BME280;50353;51.420;5.682;2023-06-14T01:09:23;101113.78;;;19.40;48.59
64095;BME280;50353;51.420;5.682;2023-06-14T01:12:05;101114.13;;;19.07;49.24
64095;BME280;50353;51.420;5.682;2023-06-14T01:14:33;101113.41;;;19.15;48.95
64095;BME280;50353;51.420;5.682;2023-06-14T01:16:59;101118.88;;;19.23;48.52
64095;BME280;50353;51.420;5.682;2023-06-14T01:19:26;101115.63;;;19.39;48.21
64095;BME280;50353;51.420;5.682;2023-06-14T01:21:56;101117.19;;;19.32;48.06
64095;BME280;50353;51.420;5.682;2023-06-14T01:24:22;101116.50;;;19.20;48.41
64095;BME280;50353;51.420;5.682;2023-06-14T01:26:53;101123.41;;;19.13;48.15
64095;BME280;50353;51.420;5.682;2023-06-14T01:29:22;101116.78;;;18.98;48.55
64095;BME280;50353;51.420;5.682;2023-06-14T01:31:49;101112.53;;;19.24;48.04
64095;BME280;50353;51.420;5.682;2023-06-14T01:34:15;101111.72;;;18.95;47.96
64095;BME280;50353;51.420;5.682;2023-06-14T01:36:42;101118.06;;;19.03;48.10
64095;BME280;50353;51.420;5.682;2023-06-14T01:39:10;101117.09;;;19.14;48.08
64095;BME280;50353;51.420;5.682;2023-06-14T01:41:37;101116.78;;;18.88;48.01
64095;BME280;50353;51.420;5.682;2023-06-14T01:44:04;101113.81;;;19.20;47.11
64095;BME280;50353;51.420;5.682;2023-06-14T01:46:30;101112.25;;;19.47;46.65
64095;BME280;50353;51.420;5.682;2023-06-14T01:48:55;101118.22;;;19.12;46.80
64095;BME280;50353;51.420;5.682;2023-06-14T01:51:20;101110.88;;;18.94;47.14
64095;BME280;50353;51.420;5.682;2023-06-14T01:53:45;101109.28;;;19.40;46.25
64095;BME280;50353;51.420;5.682;2023-06-14T01:56:11;101114.53;;;18.93;46.69
64095;BME280;50353;51.420;5.682;2023-06-14T01:58:37;101108.31;;;19.12;46.49
64095;BME280;50353;51.420;5.682;2023-06-14T02:01:02;101110.72;;;18.96;47.05
64095;BME280;50353;51.420;5.682;2023-06-14T02:03:28;101114.22;;;19.06;46.55
64095;BME280;50353;51.420;5.682;2023-06-14T02:05:53;101112.97;;;19.10;46.61
64095;BME280;50353;51.420;5.682;2023-06-14T02:08:19;101098.75;;;19.00;46.31
64095;BME280;50353;51.420;5.682;2023-06-14T02:10:45;101103.53;;;19.25;45.55
64095;BME280;50353;51.420;5.682;2023-06-14T02:13:10;101113.38;;;18.86;46.54
64095;BME280;50353;51.420;5.682;2023-06-14T02:15:35;101109.97;;;18.64;47.44
64095;BME280;50353;51.420;5.682;2023-06-14T02:18:02;101109.78;;;18.46;48.05
64095;BME280;50353;51.420;5.682;2023-06-14T02:20:28;101115.88;;;18.68;47.17
64095;BME280;50353;51.420;5.682;2023-06-14T02:22:54;101117.34;;;18.91;46.77
64095;BME280;50353;51.420;5.682;2023-06-14T02:25:20;101109.97;;;18.64;47.43
64095;BME280;50353;51.420;5.682;2023-06-14T02:27:45;101110.69;;;18.76;46.99
64095;BME280;50353;51.420;5.682;2023-06-14T02:30:11;101111.75;;;18.54;47.97
64095;BME280;50353;51.420;5.682;2023-06-14T02:32:37;101121.22;;;18.58;47.61
64095;BME280;50353;51.420;5.682;2023-06-14T02:35:03;101121.66;;;18.73;47.31
64095;BME280;50353;51.420;5.682;2023-06-14T02:37:28;101126.63;;;18.78;46.81
64095;BME280;50353;51.420;5.682;2023-06-14T02:39:54;101121.50;;;18.65;47.43
64095;BME280;50353;51.420;5.682;2023-06-14T02:42:19;101122.47;;;18.64;46.82
64095;BME280;50353;51.420;5.682;2023-06-14T02:44:45;101115.16;;;18.46;47.40
64095;BME280;50353;51.420;5.682;2023-06-14T02:47:11;101130.78;;;18.41;47.70
64095;BME280;50353;51.420;5.682;2023-06-14T02:49:37;101121.78;;;18.52;47.51
64095;BME280;50353;51.420;5.682;2023-06-14T02:52:02;101130.66;;;18.62;47.44
64095;BME280;50353;51.420;5.682;2023-06-14T02:54:27;101133.03;;;18.46;48.24
64095;BME280;50353;51.420;5.682;2023-06-14T02:56:53;101130.19;;;18.47;48.08
64095;BME280;50353;51.420;5.682;2023-06-14T02:59:18;101133.75;;;18.07;49.50
64095;BME280;50353;51.420;5.682;2023-06-14T03:01:44;101126.16;;;18.12;49.41
64095;BME280;50353;51.420;5.682;2023-06-14T03:04:09;101129.19;;;17.98;49.91
64095;BME280;50353;51.420;5.682;2023-06-14T03:06:35;101139.13;;;18.17;49.57
64095;BME280;50353;51.420;5.682;2023-06-14T03:09:02;101132.75;;;17.87;49.83
64095;BME280;50353;51.420;5.682;2023-06-14T03:11:30;101133.84;;;17.96;50.12
64095;BME280;50353;51.420;5.682;2023-06-14T03:13:56;101135.44;;;18.08;49.38
64095;BME280;50353;51.420;5.682;2023-06-14T03:16:22;101143.00;;;18.34;48.92
64095;BME280;50353;51.420;5.682;2023-06-14T03:18:51;101144.41;;;17.97;49.64
64095;BME280;50353;51.420;5.682;2023-06-14T03:21:17;101142.22;;;18.12;49.19
64095;BME280;50353;51.420;5.682;2023-06-14T03:23:43;101145.38;;;18.27;49.08
64095;BME280;50353;51.420;5.682;2023-06-14T03:26:08;101148.09;;;18.47;48.73
64095;BME280;50353;51.420;5.682;2023-06-14T03:28:34;101155.00;;;18.08;49.32
64095;BME280;50353;51.420;5.682;2023-06-14T03:30:59;101143.50;;;18.18;49.44
64095;BME280;50353;51.420;5.682;2023-06-14T03:33:25;101150.19;;;18.02;50.09
64095;BME280;50353;51.420;5.682;2023-06-14T03:35:50;101152.34;;;17.87;50.42
64095;BME280;50353;51.420;5.682;2023-06-14T03:38:17;101156.00;;;17.65;50.76
64095;BME280;50353;51.420;5.682;2023-06-14T03:40:42;101154.16;;;17.87;50.28
64095;BME280;50353;51.420;5.682;2023-06-14T03:43:07;101158.84;;;17.73;51.32
64095;BME280;50353;51.420;5.682;2023-06-14T03:45:32;101160.44;;;17.55;50.97
64095;BME280;50353;51.420;5.682;2023-06-14T03:47:58;101158.25;;;17.91;50.16
64095;BME280;50353;51.420;5.682;2023-06-14T03:50:25;101159.06;;;17.82;50.61
64095;BME280;50353;51.420;5.682;2023-06-14T03:52:50;101167.38;;;18.00;50.16
64095;BME280;50353;51.420;5.682;2023-06-14T03:55:16;101161.66;;;18.14;49.86
64095;BME280;50353;51.420;5.682;2023-06-14T03:57:41;101165.50;;;17.79;51.08
64095;BME280;50353;51.420;5.682;2023-06-14T04:00:08;101163.69;;;17.80;51.23
64095;BME280;50353;51.420;5.682;2023-06-14T04:02:34;101163.75;;;17.89;50.49
64095;BME280;50353;51.420;5.682;2023-06-14T04:04:59;101165.91;;;17.74;50.97
64095;BME280;50353;51.420;5.682;2023-06-14T04:07:25;101165.03;;;18.16;50.04
64095;BME280;50353;51.420;5.682;2023-06-14T04:09:53;101166.63;;;17.98;51.31
64095;BME280;50353;51.420;5.682;2023-06-14T04:12:18;101159.59;;;18.28;49.20
64095;BME280;50353;51.420;5.682;2023-06-14T04:14:44;101171.69;;;18.22;50.64
64095;BME280;50353;51.420;5.682;2023-06-14T04:17:09;101167.44;;;18.19;50.50
64095;BME280;50353;51.420;5.682;2023-06-14T04:19:34;101178.94;;;18.41;49.39
64095;BME280;50353;51.420;5.682;2023-06-14T04:22:00;101179.75;;;18.32;51.11
64095;BME280;50353;51.420;5.682;2023-06-14T04:24:27;101175.78;;;18.26;50.58
64095;BME280;50353;51.420;5.682;2023-06-14T04:26:57;101180.47;;;18.34;49.87
64095;BME280;50353;51.420;5.682;2023-06-14T04:29:23;101175.53;;;18.80;49.28
64095;BME280;50353;51.420;5.682;2023-06-14T04:31:49;101180.00;;;18.19;50.52
64095;BME280;50353;51.420;5.682;2023-06-14T04:34:14;101180.22;;;18.47;49.56
64095;BME280;50353;51.420;5.682;2023-06-14T04:36:43;101179.13;;;18.18;51.02
64095;BME280;50353;51.420;5.682;2023-06-14T04:39:18;101183.81;;;18.67;48.76
64095;BME280;50353;51.420;5.682;2023-06-14T04:41:43;101184.13;;;18.33;51.73
64095;BME280;50353;51.420;5.682;2023-06-14T04:44:09;101185.97;;;18.01;52.14
64095;BME280;50353;51.420;5.682;2023-06-14T04:46:35;101186.03;;;18.21;51.50
64095;BME280;50353;51.420;5.682;2023-06-14T04:49:09;101190.41;;;18.53;50.55
64095;BME280;50353;51.420;5.682;2023-06-14T04:51:35;101194.13;;;18.40;50.16
64095;BME280;50353;51.420;5.682;2023-06-14T04:54:02;101191.56;;;18.60;49.17
64095;BME280;50353;51.420;5.682;2023-06-14T04:56:28;101186.03;;;18.92;48.69
64095;BME280;50353;51.420;5.682;2023-06-14T04:58:55;101188.13;;;19.08;49.03
64095;BME280;50353;51.420;5.682;2023-06-14T05:01:21;101191.59;;;18.39;51.12
64095;BME280;50353;51.420;5.682;2023-06-14T05:03:48;101193.50;;;18.99;49.20
64095;BME280;50353;51.420;5.682;2023-06-14T05:06:14;101192.66;;;19.18;48.66
64095;BME280;50353;51.420;5.682;2023-06-14T05:08:40;101193.91;;;18.94;48.60
64095;BME280;50353;51.420;5.682;2023-06-14T05:11:06;101191.69;;;19.09;48.47
64095;BME280;50353;51.420;5.682;2023-06-14T05:13:31;101208.06;;;18.65;50.90
64095;BME280;50353;51.420;5.682;2023-06-14T05:15:58;101205.09;;;19.19;48.28
64095;BME280;50353;51.420;5.682;2023-06-14T05:18:24;101207.63;;;19.20;49.38
64095;BME280;50353;51.420;5.682;2023-06-14T05:20:50;101206.50;;;19.33;49.51
64095;BME280;50353;51.420;5.682;2023-06-14T05:23:15;101197.06;;;19.58;47.72
64095;BME280;50353;51.420;5.682;2023-06-14T05:25:44;101209.72;;;19.75;46.67
64095;BME280;50353;51.420;5.682;2023-06-14T05:28:10;101214.53;;;19.23;48.69
64095;BME280;50353;51.420;5.682;2023-06-14T05:30:37;101200.00;;;19.45;47.39
64095;BME280;50353;51.420;5.682;2023-06-14T05:33:03;101218.34;;;19.59;48.08
64095;BME280;50353;51.420;5.682;2023-06-14T05:35:29;101210.44;;;19.87;47.70
64095;BME280;50353;51.420;5.682;2023-06-14T05:37:54;101211.28;;;19.09;48.82
64095;BME280;50353;51.420;5.682;2023-06-14T05:40:19;101212.16;;;19.39;47.59
64095;BME280;50353;51.420;5.682;2023-06-14T05:42:45;101221.59;;;19.73;47.60
64095;BME280;50353;51.420;5.682;2023-06-14T05:45:11;101219.19;;;19.80;48.27
64095;BME280;50353;51.420;5.682;2023-06-14T05:47:36;101223.53;;;20.10;46.59
64095;BME280;50353;51.420;5.682;2023-06-14T05:50:02;101233.59;;;19.69;47.86
64095;BME280;50353;51.420;5.682;2023-06-14T05:52:27;101226.22;;;20.10;46.15
64095;BME280;50353;51.420;5.682;2023-06-14T05:54:53;101234.66;;;20.25;45.88
64095;BME280;50353;51.420;5.682;2023-06-14T05:57:18;101232.94;;;20.24;45.56
64095;BME280;50353;51.420;5.682;2023-06-14T05:59:43;101233.28;;;20.11;46.65
64095;BME280;50353;51.420;5.682;2023-06-14T06:02:09;101240.72;;;20.17;45.86
64095;BME280;50353;51.420;5.682;2023-06-14T06:04:34;101250.94;;;20.51;47.04
64095;BME280;50353;51.420;5.682;2023-06-14T06:07:00;101243.88;;;20.50;45.67
64095;BME280;50353;51.420;5.682;2023-06-14T06:09:25;101252.34;;;20.83;45.75
64095;BME280;50353;51.420;5.682;2023-06-14T06:11:51;101242.31;;;21.31;44.31
64095;BME280;50353;51.420;5.682;2023-06-14T06:14:16;101247.88;;;21.02;43.97
64095;BME280;50353;51.420;5.682;2023-06-14T06:16:41;101249.81;;;20.91;45.16
64095;BME280;50353;51.420;5.682;2023-06-14T06:19:07;101263.59;;;21.24;44.43
64095;BME280;50353;51.420;5.682;2023-06-14T06:21:32;101254.22;;;21.28;43.68
64095;BME280;50353;51.420;5.682;2023-06-14T06:23:57;101261.97;;;21.50;42.20
64095;BME280;50353;51.420;5.682;2023-06-14T06:26:22;101262.38;;;21.37;42.52
64095;BME280;50353;51.420;5.682;2023-06-14T06:28:48;101265.34;;;21.16;44.02
64095;BME280;50353;51.420;5.682;2023-06-14T06:31:13;101274.84;;;21.74;42.18
64095;BME280;50353;51.420;5.682;2023-06-14T06:33:39;101267.66;;;21.83;42.06
64095;BME280;50353;51.420;5.682;2023-06-14T06:36:05;101270.06;;;21.68;42.26
64095;BME280;50353;51.420;5.682;2023-06-14T06:38:30;101275.75;;;21.65;42.72
64095;BME280;50353;51.420;5.682;2023-06-14T06:40:56;101273.94;;;21.65;42.14
64095;BME280;50353;51.420;5.682;2023-06-14T06:43:21;101277.47;;;22.10;41.24
64095;BME280;50353;51.420;5.682;2023-06-14T06:45:47;101273.44;;;22.67;40.78
64095;BME280;50353;51.420;5.682;2023-06-14T06:48:12;101280.94;;;22.81;41.38
64095;BME280;50353;51.420;5.682;2023-06-14T06:50:38;101280.09;;;22.46;40.09
64095;BME280;50353;51.420;5.682;2023-06-14T06:53:03;101288.63;;;22.68;40.09
64095;BME280;50353;51.420;5.682;2023-06-14T06:55:29;101292.31;;;22.67;40.89
64095;BME280;50353;51.420;5.682;2023-06-14T06:57:55;101292.16;;;22.68;39.90
64095;BME280;50353;51.420;5.682;2023-06-14T07:00:20;101290.53;;;22.84;39.89
64095;BME280;50353;51.420;5.682;2023-06-14T07:02:46;101295.03;;;22.75;40.26
64095;BME280;50353;51.420;5.682;2023-06-14T07:05:12;101294.50;;;22.71;40.48
64095;BME280;50353;51.420;5.682;2023-06-14T07:07:37;101295.88;;;23.10;40.79
64095;BME280;50353;51.420;5.682;2023-06-14T07:10:03;101293.88;;;23.20;39.26
64095;BME280;50353;51.420;5.682;2023-06-14T07:12:30;101296.34;;;23.05;40.31
64095;BME280;50353;51.420;5.682;2023-06-14T07:14:56;101303.00;;;23.19;39.68
64095;BME280;50353;51.420;5.682;2023-06-14T07:17:22;101301.38;;;23.51;39.30
64095;BME280;50353;51.420;5.682;2023-06-14T07:19:47;101306.13;;;24.23;39.57
64095;BME280;50353;51.420;5.682;2023-06-14T07:22:13;101296.69;;;23.70;38.60
64095;BME280;50353;51.420;5.682;2023-06-14T07:24:38;101298.00;;;23.49;39.21
64095;BME280;50353;51.420;5.682;2023-06-14T07:27:05;101308.84;;;23.74;37.88
64095;BME280;50353;51.420;5.682;2023-06-14T07:29:30;101308.31;;;23.70;38.43
64095;BME280;50353;51.420;5.682;2023-06-14T07:31:56;101301.81;;;23.22;39.38
64095;BME280;50353;51.420;5.682;2023-06-14T07:34:21;101301.25;;;24.19;38.27
64095;BME280;50353;51.420;5.682;2023-06-14T07:36:46;101313.09;;;24.01;36.94
64095;BME280;50353;51.420;5.682;2023-06-14T07:39:12;101316.25;;;24.21;37.69
64095;BME280;50353;51.420;5.682;2023-06-14T07:41:37;101320.81;;;23.79;37.83
64095;BME280;50353;51.420;5.682;2023-06-14T07:44:03;101320.59;;;24.55;37.49
64095;BME280;50353;51.420;5.682;2023-06-14T07:46:28;101318.22;;;24.60;36.21
64095;BME280;50353;51.420;5.682;2023-06-14T07:48:54;101327.22;;;24.36;36.60
64095;BME280;50353;51.420;5.682;2023-06-14T07:51:19;101333.19;;;25.27;35.78
64095;BME280;50353;51.420;5.682;2023-06-14T07:53:45;101333.31;;;25.03;35.01
64095;BME280;50353;51.420;5.682;2023-06-14T07:56:11;101330.00;;;24.76;34.90
64095;BME280;50353;51.420;5.682;2023-06-14T07:58:36;101340.03;;;25.46;34.77
64095;BME280;50353;51.420;5.682;2023-06-14T08:01:02;101327.56;;;24.97;35.36
64095;BME280;50353;51.420;5.682;2023-06-14T08:03:31;101341.88;;;25.14;34.23
64095;BME280;50353;51.420;5.682;2023-06-14T08:05:57;101340.69;;;24.77;35.43
64095;BME280;50353;51.420;5.682;2023-06-14T08:08:22;101345.25;;;25.17;36.42
64095;BME280;50353;51.420;5.682;2023-06-14T08:10:47;101348.84;;;25.95;34.95
64095;BME280;50353;51.420;5.682;2023-06-14T08:13:13;101352.88;;;25.76;34.75
64095;BME280;50353;51.420;5.682;2023-06-14T08:15:38;101344.31;;;25.41;33.97
64095;BME280;50353;51.420;5.682;2023-06-14T08:18:03;101351.81;;;26.08;33.81
64095;BME280;50353;51.420;5.682;2023-06-14T08:20:29;101335.69;;;26.60;32.78
64095;BME280;50353;51.420;5.682;2023-06-14T08:22:56;101346.63;;;26.52;33.06
64095;BME280;50353;51.420;5.682;2023-06-14T08:25:22;101331.41;;;26.95;33.60
64095;BME280;50353;51.420;5.682;2023-06-14T08:27:48;101346.69;;;26.28;34.08
64095;BME280;50353;51.420;5.682;2023-06-14T08:30:13;101350.50;;;26.04;32.66
64095;BME280;50353;51.420;5.682;2023-06-14T08:32:39;101345.81;;;25.90;33.09
64095;BME280;50353;51.420;5.682;2023-06-14T08:35:05;101334.47;;;26.32;32.34
64095;BME280;50353;51.420;5.682;2023-06-14T08:37:31;101338.13;;;26.02;32.72
64095;BME280;50353;51.420;5.682;2023-06-14T08:39:56;101344.34;;;26.10;32.38
64095;BME280;50353;51.420;5.682;2023-06-14T08:42:22;101339.50;;;27.25;31.64
64095;BME280;50353;51.420;5.682;2023-06-14T08:44:49;101344.00;;;26.28;31.81
64095;BME280;50353;51.420;5.682;2023-06-14T08:47:15;101347.59;;;27.04;31.95
64095;BME280;50353;51.420;5.682;2023-06-14T08:49:45;101331.25;;;26.97;30.05
64095;BME280;50353;51.420;5.682;2023-06-14T08:52:13;101325.53;;;27.07;28.72
64095;BME280;50353;51.420;5.682;2023-06-14T08:54:39;101338.66;;;26.20;29.00
64095;BME280;50353;51.420;5.682;2023-06-14T08:57:12;101329.09;;;26.92;29.02
64095;BME280;50353;51.420;5.682;2023-06-14T08:59:46;101325.66;;;26.84;29.37
64095;BME280;50353;51.420;5.682;2023-06-14T09:02:14;101329.94;;;27.44;28.03
64095;BME280;50353;51.420;5.682;2023-06-14T09:04:39;101335.28;;;27.01;28.57
64095;BME280;50353;51.420;5.682;2023-06-14T09:07:05;101328.69;;;26.95;28.19
64095;BME280;50353;51.420;5.682;2023-06-14T09:09:32;101336.81;;;28.05;27.41
64095;BME280;50353;51.420;5.682;2023-06-14T09:11:57;101341.41;;;27.83;26.52
64095;BME280;50353;51.420;5.682;2023-06-14T09:14:25;101340.84;;;28.66;27.43
64095;BME280;50353;51.420;5.682;2023-06-14T09:16:54;101336.34;;;28.23;26.34
64095;BME280;50353;51.420;5.682;2023-06-14T09:19:25;101349.16;;;26.68;27.06
64095;BME280;50353;51.420;5.682;2023-06-14T09:21:51;101336.03;;;27.46;27.00
64095;BME280;50353;51.420;5.682;2023-06-14T09:24:18;101351.63;;;25.63;26.93
64095;BME280;50353;51.420;5.682;2023-06-14T09:26:46;101362.47;;;26.48;27.42
64095;BME280;50353;51.420;5.682;2023-06-14T09:29:11;101349.28;;;26.90;25.97
64095;BME280;50353;51.420;5.682;2023-06-14T09:31:36;101342.84;;;27.57;26.85
64095;BME280;50353;51.420;5.682;2023-06-14T09:34:02;101341.44;;;26.80;26.93
64095;BME280;50353;51.420;5.682;2023-06-14T09:36:27;101355.28;;;27.00;26.80
64095;BME280;50353;51.420;5.682;2023-06-14T09:39:03;101353.81;;;27.34;25.13
64095;BME280;50353;51.420;5.682;2023-06-14T09:41:35;101350.00;;;27.43;25.96
64095;BME280;50353;51.420;5.682;2023-06-14T09:44:02;101346.31;;;28.16;27.18
64095;BME280;50353;51.420;5.682;2023-06-14T09:46:28;101351.19;;;28.56;26.39
64095;BME280;50353;51.420;5.682;2023-06-14T09:48:54;101347.38;;;28.43;25.76
64095;BME280;50353;51.420;5.682;2023-06-14T09:51:22;101355.59;;;27.42;25.49
64095;BME280;50353;51.420;5.682;2023-06-14T09:53:49;101351.31;;;27.32;26.52
64095;BME280;50353;51.420;5.682;2023-06-14T09:56:38;101346.50;;;27.35;28.16
64095;BME280;50353;51.420;5.682;2023-06-14T09:59:06;101346.91;;;28.11;26.23
64095;BME280;50353;51.420;5.682;2023-06-14T10:01:33;101353.41;;;28.10;25.89
64095;BME280;50353;51.420;5.682;2023-06-14T10:04:05;101344.53;;;28.02;25.62
64095;BME280;50353;51.420;5.682;2023-06-14T10:06:31;101339.06;;;28.23;25.11
64095;BME280;50353;51.420;5.682;2023-06-14T10:08:58;101342.31;;;28.40;24.75
64095;BME280;50353;51.420;5.682;2023-06-14T10:11:26;101346.16;;;28.53;25.34
64095;BME280;50353;51.420;5.682;2023-06-14T10:13:51;101346.31;;;28.16;25.34
64095;BME280;50353;51.420;5.682;2023-06-14T10:16:24;101352.34;;;28.11;25.96
64095;BME280;50353;51.420;5.682;2023-06-14T10:19:17;101349.38;;;28.34;24.50
64095;BME280;50353;51.420;5.682;2023-06-14T10:21:54;101351.53;;;27.16;26.92
64095;BME280;50353;51.420;5.682;2023-06-14T10:24:47;101342.09;;;28.63;25.17
64095;BME280;50353;51.420;5.682;2023-06-14T10:27:14;101344.59;;;28.65;26.02
64095;BME280;50353;51.420;5.682;2023-06-14T10:32:25;101341.09;;;28.14;26.28
64095;BME280;50353;51.420;5.682;2023-06-14T10:34:54;101344.47;;;27.73;26.63
64095;BME280;50353;51.420;5.682;2023-06-14T10:37:20;101338.84;;;28.81;25.26
64095;BME280;50353;51.420;5.682;2023-06-14T10:39:46;101344.13;;;28.61;26.31
64095;BME280;50353;51.420;5.682;2023-06-14T10:42:13;101334.84;;;29.26;26.47
64095;BME280;50353;51.420;5.682;2023-06-14T10:44:45;101346.59;;;28.56;25.93
64095;BME280;50353;51.420;5.682;2023-06-14T10:47:26;101343.63;;;28.79;25.99
64095;BME280;50353;51.420;5.682;2023-06-14T10:49:56;101345.31;;;28.80;25.30
64095;BME280;50353;51.420;5.682;2023-06-14T10:52:25;101346.94;;;29.23;24.41
64095;BME280;50353;51.420;5.682;2023-06-14T10:54:59;101339.50;;;28.55;27.18
64095;BME280;50353;51.420;5.682;2023-06-14T10:57:24;101337.16;;;28.52;25.53
64095;BME280;50353;51.420;5.682;2023-06-14T10:59:50;101342.44;;;28.60;26.91
64095;BME280;50353;51.420;5.682;2023-06-14T11:07:43;101350.13;;;29.27;25.62
64095;BME280;50353;51.420;5.682;2023-06-14T11:10:28;101339.63;;;28.75;28.77
64095;BME280;50353;51.420;5.682;2023-06-14T11:12:56;101343.91;;;29.40;26.18
64095;BME280;50353;51.420;5.682;2023-06-14T11:15:28;101343.59;;;30.10;26.06
64095;BME280;50353;51.420;5.682;2023-06-14T11:17:55;101341.69;;;30.04;25.47
64095;BME280;50353;51.420;5.682;2023-06-14T11:20:25;101342.00;;;28.00;25.63
64095;BME280;50353;51.420;5.682;2023-06-14T11:22:52;101338.13;;;28.38;25.80
64095;BME280;50353;51.420;5.682;2023-06-14T11:25:17;101330.72;;;28.60;25.78
64095;BME280;50353;51.420;5.682;2023-06-14T11:27:42;101332.38;;;28.96;25.61
64095;BME280;50353;51.420;5.682;2023-06-14T11:30:09;101329.59;;;28.47;26.78
64095;BME280;50353;51.420;5.682;2023-06-14T11:32:35;101330.66;;;27.96;27.08
64095;BME280;50353;51.420;5.682;2023-06-14T11:35:01;101329.78;;;29.23;25.67
64095;BME280;50353;51.420;5.682;2023-06-14T11:37:27;101330.25;;;29.26;25.71
64095;BME280;50353;51.420;5.682;2023-06-14T11:39:56;101329.00;;;29.42;25.51
64095;BME280;50353;51.420;5.682;2023-06-14T11:42:22;101330.59;;;28.68;27.79
64095;BME280;50353;51.420;5.682;2023-06-14T11:44:49;101335.75;;;29.40;25.12
64095;BME280;50353;51.420;5.682;2023-06-14T11:47:14;101341.22;;;28.98;26.62
64095;BME280;50353;51.420;5.682;2023-06-14T11:49:40;101331.75;;;28.59;26.42
64095;BME280;50353;51.420;5.682;2023-06-14T11:52:05;101334.78;;;28.71;27.16
64095;BME280;50353;51.420;5.682;2023-06-14T11:54:32;101333.59;;;29.28;26.15
64095;BME280;50353;51.420;5.682;2023-06-14T11:56:57;101333.88;;;29.47;26.60
64095;BME280;50353;51.420;5.682;2023-06-14T11:59:23;101321.25;;;29.32;26.83
64095;BME280;50353;51.420;5.682;2023-06-14T12:01:49;101320.69;;;29.50;27.20
64095;BME280;50353;51.420;5.682;2023-06-14T12:04:14;101322.72;;;29.35;26.45
64095;BME280;50353;51.420;5.682;2023-06-14T12:06:39;101339.59;;;28.69;26.43
64095;BME280;50353;51.420;5.682;2023-06-14T12:09:06;101325.84;;;29.25;26.48
64095;BME280;50353;51.420;5.682;2023-06-14T12:11:35;101332.06;;;28.42;27.64
64095;BME280;50353;51.420;5.682;2023-06-14T12:14:05;101330.28;;;28.21;27.45
64095;BME280;50353;51.420;5.682;2023-06-14T12:16:33;101333.66;;;28.30;26.84
64095;BME280;50353;51.420;5.682;2023-06-14T12:19:28;101331.97;;;28.29;25.99
64095;BME280;50353;51.420;5.682;2023-06-14T12:21:53;101331.22;;;28.63;25.51
64095;BME280;50353;51.420;5.682;2023-06-14T12:24:19;101338.50;;;29.66;25.41
64095;BME280;50353;51.420;5.682;2023-06-14T12:26:44;101334.22;;;27.97;26.51
64095;BME280;50353;51.420;5.682;2023-06-14T12:29:10;101345.25;;;29.15;26.73
64095;BME280;50353;51.420;5.682;2023-06-14T12:31:37;101340.09;;;29.27;25.15
64095;BME280;50353;51.420;5.682;2023-06-14T12:34:03;101332.28;;;29.24;25.27
64095;BME280;50353;51.420;5.682;2023-06-14T12:36:28;101331.03;;;29.20;26.49
64095;BME280;50353;51.420;5.682;2023-06-14T12:38:54;101331.31;;;29.32;26.25
64095;BME280;50353;51.420;5.682;2023-06-14T12:41:20;101334.28;;;29.44;26.09
64095;BME280;50353;51.420;5.682;2023-06-14T12:43:49;101332.78;;;28.51;26.83
64095;BME280;50353;51.420;5.682;2023-06-14T12:46:15;101330.28;;;28.21;28.73
64095;BME280;50353;51.420;5.682;2023-06-14T12:48:40;101327.81;;;28.61;28.06
64095;BME280;50353;51.420;5.682;2023-06-14T12:51:05;101334.06;;;29.39;27.22
64095;BME280;50353;51.420;5.682;2023-06-14T12:53:30;101329.41;;;29.32;28.63
64095;BME280;50353;51.420;5.682;2023-06-14T12:55:56;101338.50;;;29.05;26.27